Terminal Aerodrome Forecast
Issued by NWS

Home | Current Version | Previous Version | Text Only | Print | Product List | Glossary On
Versions: 1 2 3 4 5 6 7 8 9 10 11 12 13 14 15 16 17 18
000
FTUS45 KABQ 211725
TAFLVS
TAF
KLVS 211725Z 2118/2218 20010KT P6SM FEW060
     FM211930 20012G18KT P6SM VCTS SCT060CB BKN100
      TEMPO 2121/2124 VRB15G25KT 6SM -TSRA SCT030 BKN060CB
     FM220300 18006KT P6SM VCSH SCT060 BKN100
     FM220700 03009KT P6SM BKN070
     FM221600 04009KT P6SM BKN030=

USA.gov is the U.S. government's official web portal to all federal, state and local government web resources and services.